createdAt,value
2022-11-21T00:02:02.823Z,75.75
2022-11-21T00:17:04.124Z,76.09
2022-11-21T00:32:05.695Z,75.79
2022-11-21T00:47:05.846Z,75.92
2022-11-21T01:02:07.722Z,76.83
2022-11-21T01:17:07.910Z,75.76
2022-11-21T01:32:09.799Z,76.56
2022-11-21T01:47:11.645Z,77.27
2022-11-21T02:02:13.006Z,77.00
2022-11-21T02:17:13.610Z,76.14
2022-11-21T02:32:14.498Z,75.49
2022-11-21T02:47:14.848Z,75.83
2022-11-21T03:02:15.584Z,75.73
2022-11-21T03:17:17.310Z,75.53
2022-11-21T03:32:18.627Z,75.56
2022-11-21T03:47:20.180Z,75.67
2022-11-21T04:02:21.493Z,75.76
2022-11-21T04:17:21.610Z,76.07
2022-11-21T04:32:23.015Z,76.51
2022-11-21T04:47:24.105Z,76.31
2022-11-21T05:02:25.028Z,76.31
2022-11-21T05:17:26.426Z,76.40
2022-11-21T05:32:28.308Z,76.34
2022-11-21T05:47:29.650Z,75.90
2022-11-21T06:02:31.042Z,76.04
2022-11-21T06:17:32.404Z,76.14
2022-11-21T06:32:33.803Z,76.84
2022-11-21T06:47:35.627Z,76.71
2022-11-21T07:02:37.304Z,76.75
2022-11-21T07:17:38.225Z,76.44
2022-11-21T07:32:40.493Z,75.94
2022-11-21T07:47:42.852Z,76.28
2022-11-21T08:02:44.707Z,76.34
2022-11-21T08:17:45.317Z,76.44
2022-11-21T08:32:45.505Z,76.18
2022-11-21T08:47:46.565Z,51.30
2022-11-21T09:02:49.204Z,73.36
2022-11-21T09:17:51.364Z,85.59
2022-11-21T09:32:53.217Z,98.01
2022-11-21T09:47:55.191Z,99.99
2022-11-21T10:02:57.170Z,99.99
2022-11-21T10:17:58.563Z,98.91
2022-11-21T10:33:00.155Z,98.01
2022-11-21T10:48:07.901Z,98.32
2022-11-21T11:03:09.519Z,98.95
2022-11-21T11:18:13.224Z,98.59
2022-11-21T11:33:13.830Z,99.16
2022-11-21T11:48:14.519Z,99.05
2022-11-21T12:03:15.877Z,97.95
2022-11-21T12:18:18.096Z,95.27
2022-11-21T12:33:19.710Z,94.81
2022-11-21T12:48:21.257Z,94.97
2022-11-21T13:03:23.602Z,96.65
2022-11-21T13:18:24.696Z,94.28
2022-11-21T13:33:26.150Z,95.33
2022-11-21T13:48:28.803Z,92.13
2022-11-21T14:03:31.224Z,93.59
2022-11-21T14:18:32.285Z,89.72
2022-11-21T14:33:34.245Z,89.09
2022-11-21T14:48:35.324Z,85.03
2022-11-21T15:03:36.812Z,87.13
2022-11-21T15:18:37.519Z,85.22
2022-11-21T15:33:39.243Z,81.89
2022-11-21T15:48:40.015Z,78.89
2022-11-21T16:03:49.386Z,77.66
2022-11-21T16:18:50.239Z,75.25
2022-11-21T16:33:52.713Z,74.90
2022-11-21T16:48:53.771Z,76.05
2022-11-21T17:03:54.429Z,74.79
2022-11-21T17:18:55.276Z,73.43
2022-11-21T17:33:56.657Z,73.11
2022-11-21T17:48:58.772Z,73.36
2022-11-21T18:04:00.708Z,77.59
2022-11-21T18:19:01.992Z,77.62
2022-11-21T18:34:04.193Z,77.48
2022-11-21T18:49:06.805Z,77.03
2022-11-21T19:04:10.510Z,73.73
2022-11-21T19:19:41.950Z,66.60
2022-11-21T19:34:20.958Z,65.12
2022-11-21T19:49:21.868Z,55.32
2022-11-21T20:04:23.730Z,54.50
2022-11-21T20:19:26.649Z,53.30
2022-11-21T20:34:29.234Z,58.54
2022-11-21T20:49:31.096Z,64.69
2022-11-21T21:04:33.101Z,62.60
2022-11-21T21:19:35.006Z,64.08
2022-11-21T21:34:37.418Z,62.18
2022-11-21T21:49:39.714Z,57.82
2022-11-21T22:04:41.208Z,54.53
2022-11-21T22:19:41.754Z,51.87
2022-11-21T22:34:42.358Z,50.24
2022-11-21T22:49:43.599Z,49.40
2022-11-21T23:04:45.220Z,50.22
2022-11-21T23:19:48.098Z,52.20
2022-11-21T23:34:49.227Z,52.43
2022-11-21T23:49:50.431Z,51.98
